Decoded Metar for MMZC (ZACATECAS in MEXICO) (IATA:ZCL) | Meteo·Mobile Aviation Weather
aviador You're here:

MMZC Decoded Metar

ZACATECAS in MEXICO
Report Time2019-02-17 15:47:00
UTC Time2019-02-17 16:08:08
Flight Rules vfr VFR
Wind230° at 15 kt
W.Decomp.*RWY 20: 13.9 kt HW 5.6 kt RCW
W.Rank230° ranks 5
Current wind is above 230° avg. (10.8)
Visibility9999 m
Phenomena:N/A
Clouds:N/A
Expected CloudBase > 4,800 ft AGL from Temp-Dew spread
CeilingNone
Temp18°C (ISA +17)
Dew Point06°C (46% RH)
AAT11.7°C
QNH1023 hPa
Density Alt8,924 ft
Elevation7,142 ft
Report Wrong Elevation
Raw Report
MMZC 171547Z 23015KT 10SM SKC 18/06 A3020=

Extra information for MMZC:More info

Metar Taf Metar & Taf Last 4 Metars F.Rules Stats Wind Profile Meteogram Temp Stats Airport Information Weather charts Add Link Nearby VenuesMetar ALERT Operation Metar Decoded Social comments